Terminal Aerodrome Forecast
Issued by NWS

Home | Current Version | Previous Version | Text Only | Print | Product List | Glossary On
Versions: 1 2 3 4 5 6 7 8 9 10 11 12 13 14 15 16 17 18 19
000
FTUS43 KILX 302300
TAFCMI
TAF
KCMI 302325Z 0100/0124 07006KT P6SM SCT250
     FM010900 09005KT 5SM BR SCT250
     FM011400 13008KT P6SM SCT040 SCT250=

USA.gov is the U.S. government's official web portal to all federal, state and local government web resources and services.